EXS05 LFLB-EGTE
Flight info
| Callsign | EXS05 |
|---|---|
| Flight time | 1h 4m |
| Altitude | 36000 |
| Route | BUSIL2C BUSIL DCT AMORO DCT MOMIL DCT BAGBI DCT SIZZA DCT LAULY DCT BRY DCT CLM DCT KOPOR DCT SOSUN DCT SUBIP UM8 WAFFU/N0375F220 Y8 SAM L620 GIBSO DCT |
| Aircraft | A21N/M-SDE2E3FGHIRWXY/LB1 |
Departure
| Time | 2026-04-28 15:32 |
|---|---|
| Airport | Chambéry Aix les Bains airport (LFLB) |
Arrival
| Time | 2026-04-28 16:36 |
|---|---|
| Airport | Exeter International Airport (EGTE) |
| Time | Latitude | Longitude | Altitude | Speed | Heading |
|---|---|---|---|---|---|
| 2026-04-28 15:12 | 45.64075 | 5.88315 | 781 ft | 0 kts | 87° |
| 2026-04-28 15:25 | 45.64074 | 5.88292 | 781 ft | 2 kts | 87° |
| 2026-04-28 15:26 | 45.64073 | 5.88269 | 781 ft | 2 kts | 87° |
| 2026-04-28 15:26 | 45.64078 | 5.88246 | 781 ft | 2 kts | 142° |
| 2026-04-28 15:26 | 45.64086 | 5.88239 | 781 ft | 0 kts | 172° |
| 2026-04-28 15:26 | 45.64084 | 5.88239 | 781 ft | 4 kts | 172° |
| 2026-04-28 15:27 | 45.63938 | 5.88235 | 781 ft | 29 kts | 183° |
| 2026-04-28 15:27 | 45.63740 | 5.88247 | 781 ft | 28 kts | 176° |
| 2026-04-28 15:27 | 45.63560 | 5.88249 | 781 ft | 25 kts | 182° |
| 2026-04-28 15:27 | 45.63396 | 5.88255 | 781 ft | 23 kts | 175° |
| 2026-04-28 15:28 | 45.63244 | 5.88272 | 781 ft | 21 kts | 178° |
| 2026-04-28 15:28 | 45.63150 | 5.88170 | 782 ft | 17 kts | 271° |
| 2026-04-28 15:28 | 45.63061 | 5.88084 | 782 ft | 21 kts | 177° |
| 2026-04-28 15:28 | 45.62934 | 5.88131 | 781 ft | 16 kts | 195° |
| 2026-04-28 15:29 | 45.62955 | 5.88079 | 781 ft | 15 kts | 356° |
| 2026-04-28 15:29 | 45.63072 | 5.88083 | 782 ft | 34 kts | 355° |
| 2026-04-28 15:29 | 45.63503 | 5.88048 | 781 ft | 89 kts | 356° |
| 2026-04-28 15:29 | 45.64310 | 5.87983 | 782 ft | 144 kts | 356° |
| 2026-04-28 15:30 | 45.65438 | 5.87886 | 1034 ft | 173 kts | 356° |
| 2026-04-28 15:30 | 45.66732 | 5.87770 | 1167 ft | 202 kts | 357° |
| 2026-04-28 15:30 | 45.67709 | 5.87691 | 1142 ft | 224 kts | 357° |
| 2026-04-28 15:30 | 45.69389 | 5.87555 | 1101 ft | 257 kts | 356° |
| 2026-04-28 15:31 | 45.71287 | 5.87401 | 1097 ft | 286 kts | 356° |
| 2026-04-28 15:31 | 45.73359 | 5.87225 | 1083 ft | 310 kts | 354° |
| 2026-04-28 15:31 | 45.75492 | 5.86375 | 1047 ft | 329 kts | 330° |
| 2026-04-28 15:31 | 45.77638 | 5.83157 | 1161 ft | 352 kts | 292° |
| 2026-04-28 15:32 | 45.77964 | 5.81101 | 3163 ft | 302 kts | 275° |
| 2026-04-28 15:32 | 45.77639 | 5.78287 | 5161 ft | 260 kts | 241° |
| 2026-04-28 15:32 | 45.76499 | 5.76530 | 6904 ft | 233 kts | 208° |
| 2026-04-28 15:32 | 45.74968 | 5.76003 | 7710 ft | 237 kts | 175° |
| 2026-04-28 15:33 | 45.73388 | 5.76826 | 7975 ft | 249 kts | 151° |
| 2026-04-28 15:33 | 45.71851 | 5.77981 | 8002 ft | 249 kts | 160° |
| 2026-04-28 15:33 | 45.70197 | 5.78702 | 8002 ft | 248 kts | 171° |
| 2026-04-28 15:33 | 45.68475 | 5.79008 | 8297 ft | 252 kts | 179° |
| 2026-04-28 15:34 | 45.66725 | 5.79029 | 9160 ft | 248 kts | 183° |
| 2026-04-28 15:34 | 45.56750 | 5.77834 | 9929 ft | 6574 kts | 185° |
| 2026-04-28 15:34 | 45.25018 | 5.72611 | 9997 ft | 0 kts | 186° |
| 2026-04-28 15:34 | 45.02613 | 5.67446 | 10320 ft | 232 kts | 189° |
| 2026-04-28 15:35 | 44.71519 | 5.59051 | 10416 ft | 0 kts | 191° |
| 2026-04-28 15:35 | 44.71218 | 5.58955 | 10701 ft | 224 kts | 196° |
| 2026-04-28 15:35 | 44.69736 | 5.58433 | 11581 ft | 222 kts | 184° |
| 2026-04-28 15:36 | 44.68132 | 5.58646 | 11865 ft | 243 kts | 176° |
| 2026-04-28 15:36 | 44.66381 | 5.58788 | 12178 ft | 259 kts | 181° |
| 2026-04-28 15:36 | 44.64541 | 5.58679 | 12620 ft | 273 kts | 190° |
| 2026-04-28 15:36 | 44.62674 | 5.57872 | 12907 ft | 291 kts | 210° |
| 2026-04-28 15:37 | 44.61115 | 5.55955 | 13131 ft | 310 kts | 236° |
| 2026-04-28 15:37 | 44.60358 | 5.53056 | 13404 ft | 330 kts | 263° |
| 2026-04-28 15:37 | 44.60620 | 5.49774 | 13686 ft | 352 kts | 288° |
| 2026-04-28 15:37 | 44.61900 | 5.46745 | 13946 ft | 374 kts | 310° |
| 2026-04-28 15:38 | 44.63996 | 5.44527 | 14247 ft | 394 kts | 332° |
| 2026-04-28 15:38 | 44.66687 | 5.43414 | 14571 ft | 413 kts | 352° |
| 2026-04-28 15:38 | 44.69605 | 5.43612 | 14812 ft | 428 kts | 10° |
| 2026-04-28 15:38 | 44.72526 | 5.44606 | 15186 ft | 433 kts | 11° |
| 2026-04-28 15:39 | 44.75509 | 5.45326 | 15622 ft | 435 kts | 5° |
| 2026-04-28 15:39 | 44.78535 | 5.45673 | 16074 ft | 438 kts | 1° |
| 2026-04-28 15:39 | 44.81583 | 5.45761 | 16523 ft | 439 kts | 358° |
| 2026-04-28 15:39 | 44.84648 | 5.45696 | 16948 ft | 442 kts | 356° |
| 2026-04-28 15:40 | 44.87727 | 5.45543 | 17358 ft | 444 kts | 355° |
| 2026-04-28 15:40 | 44.90795 | 5.45344 | 17696 ft | 449 kts | 354° |
| 2026-04-28 15:40 | 44.93930 | 5.45113 | 18100 ft | 451 kts | 354° |
| 2026-04-28 15:40 | 44.97074 | 5.44868 | 18499 ft | 454 kts | 354° |
| 2026-04-28 15:41 | 45.00237 | 5.44613 | 18882 ft | 456 kts | 354° |
| 2026-04-28 15:41 | 45.03408 | 5.44354 | 19273 ft | 458 kts | 354° |
| 2026-04-28 15:41 | 45.06600 | 5.44091 | 19691 ft | 459 kts | 354° |
| 2026-04-28 15:41 | 45.09796 | 5.43827 | 20096 ft | 461 kts | 354° |
| 2026-04-28 15:42 | 45.13007 | 5.43561 | 20522 ft | 463 kts | 354° |
| 2026-04-28 15:42 | 45.16191 | 5.43295 | 20928 ft | 465 kts | 354° |
| 2026-04-28 15:42 | 45.19439 | 5.43024 | 21314 ft | 468 kts | 354° |
| 2026-04-28 15:42 | 45.22697 | 5.42752 | 21715 ft | 470 kts | 354° |
| 2026-04-28 15:43 | 45.25974 | 5.42478 | 22099 ft | 472 kts | 354° |
| 2026-04-28 15:43 | 45.29260 | 5.42203 | 22441 ft | 475 kts | 354° |
| 2026-04-28 15:43 | 45.32578 | 5.41925 | 22785 ft | 477 kts | 354° |
| 2026-04-28 15:43 | 45.35896 | 5.41647 | 23115 ft | 480 kts | 354° |
| 2026-04-28 15:44 | 45.39238 | 5.41366 | 23442 ft | 482 kts | 354° |
| 2026-04-28 15:44 | 45.42582 | 5.41086 | 23876 ft | 480 kts | 354° |
| 2026-04-28 15:44 | 45.45915 | 5.40806 | 24285 ft | 479 kts | 354° |
| 2026-04-28 15:44 | 45.49257 | 5.40524 | 24595 ft | 482 kts | 354° |
| 2026-04-28 15:45 | 45.52606 | 5.40241 | 25009 ft | 481 kts | 353° |
| 2026-04-28 15:45 | 45.55894 | 5.39964 | 25488 ft | 479 kts | 353° |
| 2026-04-28 15:45 | 45.59224 | 5.39682 | 25945 ft | 478 kts | 353° |
| 2026-04-28 15:45 | 45.62539 | 5.39402 | 26364 ft | 477 kts | 353° |
| 2026-04-28 15:46 | 45.65848 | 5.39121 | 26765 ft | 476 kts | 353° |
| 2026-04-28 15:46 | 45.69161 | 5.38840 | 27091 ft | 477 kts | 353° |
| 2026-04-28 15:46 | 45.72467 | 5.38500 | 27474 ft | 475 kts | 349° |
| 2026-04-28 15:46 | 45.75693 | 5.37655 | 27875 ft | 468 kts | 340° |
| 2026-04-28 15:47 | 45.78732 | 5.36058 | 28266 ft | 461 kts | 329° |
| 2026-04-28 15:47 | 45.81480 | 5.33763 | 28626 ft | 455 kts | 321° |
| 2026-04-28 15:47 | 45.84047 | 5.31135 | 29050 ft | 452 kts | 319° |
| 2026-04-28 15:47 | 45.86533 | 5.28493 | 29543 ft | 449 kts | 318° |
| 2026-04-28 15:48 | 45.89033 | 5.25822 | 29988 ft | 447 kts | 318° |
| 2026-04-28 15:48 | 45.91531 | 5.23153 | 30340 ft | 446 kts | 318° |
| 2026-04-28 15:48 | 45.94023 | 5.20493 | 30655 ft | 445 kts | 318° |
| 2026-04-28 15:48 | 45.96509 | 5.17840 | 30977 ft | 444 kts | 318° |
| 2026-04-28 15:49 | 45.98985 | 5.15197 | 31287 ft | 442 kts | 318° |
| 2026-04-28 15:49 | 46.01456 | 5.12557 | 31546 ft | 443 kts | 317° |
| 2026-04-28 15:49 | 46.03869 | 5.09901 | 31785 ft | 440 kts | 314° |
| 2026-04-28 15:49 | 46.06103 | 5.06930 | 32074 ft | 436 kts | 309° |
| 2026-04-28 15:50 | 46.08223 | 5.03835 | 32422 ft | 432 kts | 308° |
| 2026-04-28 15:50 | 46.10315 | 5.00725 | 32700 ft | 431 kts | 308° |
| 2026-04-28 15:50 | 46.12395 | 4.97620 | 32953 ft | 430 kts | 308° |
| 2026-04-28 15:50 | 46.14473 | 4.94516 | 33185 ft | 430 kts | 308° |
| 2026-04-28 15:51 | 46.16551 | 4.91411 | 33419 ft | 429 kts | 308° |
| 2026-04-28 15:51 | 46.18627 | 4.88307 | 33648 ft | 429 kts | 308° |
| 2026-04-28 15:51 | 46.20672 | 4.85247 | 33874 ft | 428 kts | 308° |
| 2026-04-28 15:51 | 46.22736 | 4.82158 | 34090 ft | 427 kts | 308° |
| 2026-04-28 15:52 | 46.24799 | 4.79065 | 34283 ft | 427 kts | 307° |
| 2026-04-28 15:52 | 46.26856 | 4.75979 | 34483 ft | 425 kts | 308° |
| 2026-04-28 15:52 | 46.28994 | 4.73008 | 34704 ft | 427 kts | 314° |
| 2026-04-28 15:52 | 46.31392 | 4.70418 | 34856 ft | 432 kts | 319° |
| 2026-04-28 15:53 | 46.33909 | 4.68029 | 34971 ft | 434 kts | 321° |
| 2026-04-28 15:53 | 46.36480 | 4.65717 | 35081 ft | 435 kts | 322° |
| 2026-04-28 15:53 | 46.39070 | 4.63444 | 35205 ft | 436 kts | 322° |
| 2026-04-28 15:53 | 46.41674 | 4.61172 | 35343 ft | 436 kts | 322° |
| 2026-04-28 15:54 | 46.44268 | 4.58900 | 35469 ft | 435 kts | 322° |
| 2026-04-28 15:54 | 46.46918 | 4.56751 | 35582 ft | 440 kts | 330° |
| 2026-04-28 15:54 | 46.49797 | 4.55264 | 35713 ft | 449 kts | 341° |
| 2026-04-28 15:54 | 46.52924 | 4.54660 | 35792 ft | 460 kts | 355° |
| 2026-04-28 15:55 | 46.59375 | 4.55321 | 35935 ft | 467 kts | 1° |
| 2026-04-28 15:55 | 46.65861 | 4.56587 | 36007 ft | 472 kts | 3° |
| 2026-04-28 15:56 | 46.72324 | 4.57910 | 36007 ft | 471 kts | 2° |
| 2026-04-28 15:56 | 46.78827 | 4.58831 | 36006 ft | 464 kts | 352° |
| 2026-04-28 15:57 | 46.85029 | 4.57170 | 36007 ft | 447 kts | 334° |
| 2026-04-28 15:57 | 46.90758 | 4.53784 | 36005 ft | 446 kts | 330° |
| 2026-04-28 15:58 | 46.96406 | 4.50058 | 36011 ft | 445 kts | 329° |
| 2026-04-28 15:58 | 47.02062 | 4.46282 | 36007 ft | 447 kts | 329° |
| 2026-04-28 15:59 | 47.06793 | 4.43155 | 36006 ft | 448 kts | 329° |
| 2026-04-28 15:59 | 47.13298 | 4.38468 | 36011 ft | 443 kts | 327° |
| 2026-04-28 16:00 | 47.18949 | 4.34772 | 36008 ft | 451 kts | 331° |
| 2026-04-28 16:00 | 47.24760 | 4.31209 | 36007 ft | 452 kts | 330° |
| 2026-04-28 16:01 | 47.57362 | 4.04368 | 36052 ft | 0 kts | 330° |
| 2026-04-28 16:01 | 47.60149 | 4.02383 | 36512 ft | 447 kts | 338° |
| 2026-04-28 16:01 | 47.66423 | 4.00845 | 36271 ft | 465 kts | 346° |
| 2026-04-28 16:02 | 47.69618 | 4.00037 | 36025 ft | 463 kts | 341° |
| 2026-04-28 16:02 | 47.72678 | 3.98862 | 36001 ft | 457 kts | 336° |
| 2026-04-28 16:02 | 47.78587 | 3.95599 | 36002 ft | 450 kts | 330° |
| 2026-04-28 16:03 | 47.93632 | 3.82796 | 36009 ft | 26627 kts | 329° |
| 2026-04-28 16:03 | 49.14405 | 2.74169 | 36038 ft | 26617 kts | 329° |
| 2026-04-28 16:03 | 49.57090 | 2.21748 | 35746 ft | 443 kts | 326° |
| 2026-04-28 16:03 | 49.59753 | 2.19469 | 36128 ft | 437 kts | 330° |
| 2026-04-28 16:04 | 49.64971 | 2.14591 | 36075 ft | 439 kts | 319° |
| 2026-04-28 16:04 | 49.69414 | 2.08145 | 36088 ft | 439 kts | 309° |
| 2026-04-28 16:05 | 49.73329 | 2.00864 | 36089 ft | 442 kts | 306° |
| 2026-04-28 16:05 | 49.77133 | 1.93340 | 36101 ft | 446 kts | 305° |
| 2026-04-28 16:06 | 49.80996 | 1.85753 | 35634 ft | 447 kts | 306° |
| 2026-04-28 16:06 | 49.82952 | 1.81950 | 35440 ft | 455 kts | 306° |
| 2026-04-28 16:06 | 49.84915 | 1.78146 | 35405 ft | 459 kts | 306° |
| 2026-04-28 16:07 | 50.37405 | 0.70431 | 35595 ft | 0 kts | 307° |
| 2026-04-28 16:07 | 50.41996 | 0.64105 | 36044 ft | 446 kts | 339° |
| 2026-04-28 16:08 | 50.44945 | 0.62732 | 35952 ft | 442 kts | 357° |
| 2026-04-28 16:08 | 50.48002 | 0.62788 | 35779 ft | 439 kts | 14° |
| 2026-04-28 16:08 | 50.51015 | 0.63663 | 35776 ft | 441 kts | 12° |
| 2026-04-28 16:09 | 50.56178 | 0.63806 | 35947 ft | 439 kts | 319° |
| 2026-04-28 16:09 | 50.58507 | 0.60748 | 36211 ft | 434 kts | 320° |
| 2026-04-28 16:09 | 50.60623 | 0.57416 | 36225 ft | 437 kts | 308° |
| 2026-04-28 16:10 | 50.63397 | 0.48654 | 35507 ft | 462 kts | 290° |
| 2026-04-28 16:10 | 50.66176 | 0.34359 | 36065 ft | 455 kts | 284° |
| 2026-04-28 16:11 | 50.67430 | 0.24634 | 36199 ft | 456 kts | 281° |
| 2026-04-28 16:11 | 50.68459 | 0.14715 | 36202 ft | 461 kts | 276° |
| 2026-04-28 16:12 | 50.69024 | -0.00560 | 36207 ft | 468 kts | 273° |
| 2026-04-28 16:13 | 50.69451 | -0.15994 | 36189 ft | 475 kts | 274° |
| 2026-04-28 16:14 | 50.70128 | -0.37018 | 36190 ft | 483 kts | 274° |
| 2026-04-28 16:15 | 50.70784 | -0.58133 | 36198 ft | 482 kts | 274° |
| 2026-04-28 16:15 | 50.71095 | -0.68671 | 35622 ft | 479 kts | 274° |
| 2026-04-28 16:16 | 50.71400 | -0.79311 | 33804 ft | 491 kts | 273° |
| 2026-04-28 16:16 | 50.71552 | -0.84728 | 32786 ft | 496 kts | 273° |
| 2026-04-28 16:17 | 50.71852 | -0.95751 | 30791 ft | 508 kts | 274° |
| 2026-04-28 16:17 | 50.72001 | -1.01362 | 29651 ft | 516 kts | 274° |
| 2026-04-28 16:17 | 50.72149 | -1.07035 | 28617 ft | 518 kts | 274° |
| 2026-04-28 16:17 | 50.72294 | -1.12719 | 27706 ft | 517 kts | 274° |
| 2026-04-28 16:18 | 50.72436 | -1.18400 | 26784 ft | 517 kts | 274° |
| 2026-04-28 16:18 | 50.72573 | -1.23997 | 25863 ft | 517 kts | 274° |
| 2026-04-28 16:18 | 50.72710 | -1.29685 | 24921 ft | 518 kts | 274° |
| 2026-04-28 16:18 | 50.72842 | -1.35315 | 24573 ft | 505 kts | 274° |
| 2026-04-28 16:19 | 50.72964 | -1.40754 | 24538 ft | 484 kts | 274° |
| 2026-04-28 16:19 | 50.73041 | -1.44252 | 24520 ft | 478 kts | 275° |
| 2026-04-28 16:19 | 50.73201 | -1.51332 | 24434 ft | 490 kts | 275° |
| 2026-04-28 16:19 | 50.73281 | -1.54896 | 24381 ft | 491 kts | 275° |
| 2026-04-28 16:20 | 50.73399 | -1.60297 | 24310 ft | 492 kts | 275° |
| 2026-04-28 16:20 | 50.73513 | -1.65703 | 24236 ft | 492 kts | 274° |
| 2026-04-28 16:20 | 50.73623 | -1.71103 | 24161 ft | 492 kts | 274° |
| 2026-04-28 16:20 | 50.73732 | -1.76506 | 24085 ft | 492 kts | 274° |
| 2026-04-28 16:21 | 50.73840 | -1.81970 | 23784 ft | 499 kts | 274° |
| 2026-04-28 16:21 | 50.73947 | -1.87467 | 22686 ft | 502 kts | 274° |
| 2026-04-28 16:21 | 50.74050 | -1.92997 | 21528 ft | 506 kts | 274° |
| 2026-04-28 16:21 | 50.74151 | -1.98526 | 20818 ft | 498 kts | 274° |
| 2026-04-28 16:22 | 50.74245 | -2.03902 | 20086 ft | 492 kts | 273° |
| 2026-04-28 16:22 | 50.74337 | -2.09276 | 19382 ft | 485 kts | 273° |
| 2026-04-28 16:22 | 50.74425 | -2.14566 | 18702 ft | 479 kts | 272° |
| 2026-04-28 16:22 | 50.74510 | -2.19796 | 17921 ft | 472 kts | 272° |
| 2026-04-28 16:23 | 50.74591 | -2.24952 | 17161 ft | 466 kts | 272° |
| 2026-04-28 16:23 | 50.74669 | -2.30026 | 16398 ft | 459 kts | 272° |
| 2026-04-28 16:23 | 50.74743 | -2.35047 | 15644 ft | 454 kts | 272° |
| 2026-04-28 16:23 | 50.74815 | -2.40009 | 14880 ft | 449 kts | 272° |
| 2026-04-28 16:24 | 50.74882 | -2.44852 | 14190 ft | 442 kts | 272° |
| 2026-04-28 16:24 | 50.74948 | -2.49693 | 13430 ft | 436 kts | 272° |
| 2026-04-28 16:24 | 50.74891 | -2.54450 | 12628 ft | 431 kts | 267° |
| 2026-04-28 16:24 | 50.74705 | -2.59157 | 11989 ft | 423 kts | 266° |
| 2026-04-28 16:25 | 50.74507 | -2.63635 | 11861 ft | 403 kts | 266° |
| 2026-04-28 16:25 | 50.74316 | -2.67948 | 11722 ft | 384 kts | 266° |
| 2026-04-28 16:25 | 50.74134 | -2.72064 | 11583 ft | 367 kts | 266° |
| 2026-04-28 16:25 | 50.73961 | -2.76006 | 11440 ft | 351 kts | 266° |
| 2026-04-28 16:26 | 50.73795 | -2.79774 | 11299 ft | 337 kts | 266° |
| 2026-04-28 16:26 | 50.73634 | -2.83412 | 11155 ft | 324 kts | 266° |
| 2026-04-28 16:26 | 50.73480 | -2.86901 | 10933 ft | 314 kts | 266° |
| 2026-04-28 16:26 | 50.73328 | -2.90326 | 10527 ft | 314 kts | 266° |
| 2026-04-28 16:27 | 50.73175 | -2.93771 | 10055 ft | 314 kts | 266° |
| 2026-04-28 16:27 | 50.73023 | -2.97147 | 9634 ft | 311 kts | 266° |
| 2026-04-28 16:27 | 50.72716 | -3.03898 | 8829 ft | 305 kts | 266° |
| 2026-04-28 16:28 | 50.72564 | -3.07237 | 8436 ft | 303 kts | 266° |
| 2026-04-28 16:28 | 50.72411 | -3.10549 | 8027 ft | 301 kts | 266° |
| 2026-04-28 16:28 | 50.72259 | -3.13833 | 7650 ft | 299 kts | 266° |
| 2026-04-28 16:28 | 50.72107 | -3.17095 | 7269 ft | 297 kts | 266° |
| 2026-04-28 16:29 | 50.71803 | -3.23529 | 6512 ft | 293 kts | 267° |
| 2026-04-28 16:29 | 50.71498 | -3.29939 | 5576 ft | 293 kts | 267° |
| 2026-04-28 16:30 | 50.71344 | -3.33124 | 5167 ft | 290 kts | 267° |
| 2026-04-28 16:30 | 50.71190 | -3.36296 | 4707 ft | 289 kts | 267° |
| 2026-04-28 16:30 | 50.71037 | -3.39439 | 4322 ft | 285 kts | 268° |
| 2026-04-28 16:30 | 50.70886 | -3.42533 | 3952 ft | 281 kts | 268° |
| 2026-04-28 16:31 | 50.70738 | -3.45554 | 3615 ft | 278 kts | 268° |
| 2026-04-28 16:31 | 50.70589 | -3.48553 | 3412 ft | 267 kts | 268° |
| 2026-04-28 16:31 | 50.70445 | -3.51433 | 3140 ft | 260 kts | 268° |
| 2026-04-28 16:31 | 50.70304 | -3.54256 | 3078 ft | 254 kts | 268° |
| 2026-04-28 16:32 | 50.70169 | -3.56930 | 3035 ft | 237 kts | 268° |
| 2026-04-28 16:32 | 50.69477 | -3.61974 | 2352 ft | 240 kts | 230° |
| 2026-04-28 16:32 | 50.68159 | -3.63243 | 2206 ft | 211 kts | 184° |
| 2026-04-28 16:33 | 50.66920 | -3.62806 | 2221 ft | 164 kts | 132° |
| 2026-04-28 16:33 | 50.66552 | -3.61918 | 2196 ft | 135 kts | 93° |
| 2026-04-28 16:33 | 50.67130 | -3.60206 | 2712 ft | 141 kts | 46° |
| 2026-04-28 16:33 | 50.67952 | -3.58993 | 2818 ft | 184 kts | 41° |
| 2026-04-28 16:34 | 50.68947 | -3.57698 | 3359 ft | 190 kts | 41° |
| 2026-04-28 16:34 | 50.70018 | -3.56380 | 3474 ft | 186 kts | 40° |
| 2026-04-28 16:34 | 50.70968 | -3.55177 | 3335 ft | 165 kts | 43° |
| 2026-04-28 16:34 | 50.71554 | -3.53743 | 3089 ft | 152 kts | 71° |
| 2026-04-28 16:35 | 50.71748 | -3.52169 | 2858 ft | 141 kts | 78° |
| 2026-04-28 16:35 | 50.71856 | -3.50622 | 2403 ft | 151 kts | 79° |
| 2026-04-28 16:35 | 50.72018 | -3.48718 | 2017 ft | 197 kts | 76° |
| 2026-04-28 16:35 | 50.72538 | -3.46623 | 1031 ft | 207 kts | 61° |
| 2026-04-28 16:36 | 50.72990 | -3.44656 | 691 ft | 164 kts | 97° |
| 2026-04-28 16:36 | 50.73261 | -3.42985 | 162 ft | 156 kts | 85° |
| 2026-04-28 16:36 | 50.73416 | -3.41440 | 93 ft | 122 kts | 71° |
| 2026-04-28 16:36 | 50.73569 | -3.40503 | 96 ft | 47 kts | 76° |
| 2026-04-28 16:37 | 50.73596 | -3.40340 | 97 ft | 9 kts | 65° |
| 2026-04-28 16:37 | 50.73630 | -3.40095 | 94 ft | 25 kts | 92° |
| 2026-04-28 16:37 | 50.73650 | -3.39978 | 95 ft | 4 kts | 317° |
| 2026-04-28 16:38 | 50.73467 | -3.41131 | 94 ft | 122 kts | 256° |
| 2026-04-28 16:38 | 50.73203 | -3.42786 | 149 ft | 180 kts | 260° |
| 2026-04-28 16:38 | 50.72784 | -3.45926 | 643 ft | 788 kts | 260° |
| 2026-04-28 16:38 | 50.72446 | -3.47903 | 811 ft | 183 kts | 74° |
| 2026-04-28 16:39 | 50.72680 | -3.46038 | 554 ft | 164 kts | 74° |
| 2026-04-28 16:39 | 50.72936 | -3.44406 | 367 ft | 143 kts | 71° |
| 2026-04-28 16:39 | 50.73180 | -3.42951 | 143 ft | 129 kts | 72° |
| 2026-04-28 16:39 | 50.73383 | -3.41677 | 92 ft | 92 kts | 76° |
| 2026-04-28 16:40 | 50.73492 | -3.40988 | 96 ft | 42 kts | 76° |
| 2026-04-28 16:40 | 50.73582 | -3.40412 | 98 ft | 86 kts | 76° |
| 2026-04-28 16:40 | 50.73402 | -3.41581 | 95 ft | 0 kts | 76° |
| 2026-04-28 16:40 | 50.73429 | -3.41407 | 94 ft | 49 kts | 76° |
| 2026-04-28 16:41 | 50.73573 | -3.40510 | 97 ft | 121 kts | 75° |
| 2026-04-28 16:41 | 50.73402 | -3.41539 | 90 ft | 384 kts | 76° |
| 2026-04-28 16:41 | 50.73208 | -3.42780 | 92 ft | 0 kts | 76° |
| 2026-04-28 16:41 | 50.73242 | -3.42551 | 94 ft | 51 kts | 74° |
| 2026-04-28 16:42 | 50.73401 | -3.41592 | 91 ft | 128 kts | 76° |
| 2026-04-28 16:42 | 50.73630 | -3.40129 | 95 ft | 543 kts | 73° |
| 2026-04-28 16:42 | 50.73627 | -3.40113 | 95 ft | 1 kts | 254° |
| 2026-04-28 16:42 | 50.73571 | -3.40481 | 97 ft | 72 kts | 256° |
| 2026-04-28 16:43 | 50.73410 | -3.41386 | 598 ft | 82 kts | 274° |
| 2026-04-28 16:43 | 50.74152 | -3.36665 | 687 ft | 87 kts | 281° |
| 2026-04-28 16:43 | 50.74043 | -3.37457 | 598 ft | 70 kts | 272° |
| 2026-04-28 16:43 | 50.73928 | -3.38125 | 494 ft | 58 kts | 274° |
| 2026-04-28 16:44 | 50.73818 | -3.38862 | 325 ft | 79 kts | 266° |
| 2026-04-28 16:44 | 50.73688 | -3.39721 | 172 ft | 79 kts | 265° |
| 2026-04-28 16:44 | 50.73551 | -3.40524 | 99 ft | 66 kts | 270° |
| 2026-04-28 16:44 | 50.73469 | -3.41119 | 94 ft | 47 kts | 257° |
| 2026-04-28 16:45 | 50.73394 | -3.41633 | 93 ft | 71 kts | 255° |
| 2026-04-28 16:45 | 50.73279 | -3.42481 | 587 ft | 71 kts | 267° |
| 2026-04-28 16:45 | 50.73156 | -3.42979 | 1474 ft | 30 kts | 261° |
| 2026-04-28 16:45 | 50.72917 | -3.43135 | 964 ft | 28 kts | 268° |
| 2026-04-28 16:46 | 50.72883 | -3.43545 | 36 ft | 3 kts | 265° |